Parker Dam, California
Current Conditions -  °F | °C
As of 1:35 PM on Friday 28 Nov 2014 (Local Time) from KHII Reporting Station
Clear Clear  
Wind Chill: 73°   Ceiling: Unl
Heat Index: 73°   Visibility: 10mi
Dew Point: 23°   Wind: 3mph
Humidity: 15%   Direction: 230°SW
Pressure: 29.93"   Gusts: NA
Location:  34.29°N, 114.14°W
Report Text: KHII 282135Z AUTO 23003KT 10SM CLR 23/M05 A2993 RMK AO2
Loading
Personal Weather Stations






























Interactive Weather Map New forecast layout! Learn more

10-Day Weather Forecast

Advertisements
Track Severe Weather on mobile